Time;durP1;ratioP1;P1;durP2;ratioP2;P2;SDS_P1;SDS_P2;PMS_P1;PMS_P2;Temp;Humidity;BMP_temperature;BMP_pressure;BME280_temperature;BME280_humidity;BME280_pressure;Samples;Min_cycle;Max_cycle;Signal;HPM_P1;HPM_P2
2022/09/17 00:01:27;;;;;;;7.78;5.38;;;;;;;17.58;97.37;94220.72;5074424;28;20210;-69
2022/09/17 00:03:56;;;;;;;4.75;4.32;;;;;;;17.80;97.00;94214.03;5074595;28;20230;-68
2022/09/17 00:06:25;;;;;;;7.70;4.50;;;;;;;17.59;97.57;94217.22;5074380;28;20703;-69
2022/09/17 00:08:53;;;;;;;5.20;4.60;;;;;;;17.72;97.85;94214.59;5074801;28;20194;-69
2022/09/17 00:11:23;;;;;;;9.68;4.97;;;;;;;17.76;96.49;94202.34;5074508;28;20632;-69
2022/09/17 00:13:51;;;;;;;7.53;4.50;;;;;;;17.78;97.09;94205.59;5074838;28;20249;-69
2022/09/17 00:16:25;;;;;;;5.25;4.70;;;;;;;17.83;96.46;94183.75;5074380;28;20206;-69
2022/09/17 00:18:51;;;;;;;9.32;4.43;;;;;;;17.82;97.31;94191.56;5074457;28;20256;-68
2022/09/17 00:21:19;;;;;;;5.38;4.85;;;;;;;17.91;96.77;94183.16;5073955;28;20261;-68
2022/09/17 00:23:47;;;;;;;11.98;4.60;;;;;;;18.18;94.95;94191.34;5074162;28;20202;-69
2022/09/17 00:26:14;;;;;;;5.32;3.97;;;;;;;18.35;93.65;94185.72;5074378;28;20256;-69
2022/09/17 00:28:44;;;;;;;4.85;4.32;;;;;;;18.36;93.62;94186.53;5074238;28;20194;-66
2022/09/17 00:31:11;;;;;;;5.63;4.75;;;;;;;18.33;93.70;94190.16;5074045;28;20202;-70
2022/09/17 00:33:38;;;;;;;6.35;5.00;;;;;;;18.22;94.16;94187.63;5074016;28;20195;-69
2022/09/17 00:36:06;;;;;;;7.43;4.55;;;;;;;18.14;94.43;94192.50;5073991;28;20202;-69
2022/09/17 00:38:33;;;;;;;8.38;5.28;;;;;;;18.26;94.42;94201.06;5073972;28;20659;-68
2022/09/17 00:41:02;;;;;;;7.05;4.80;;;;;;;18.28;94.10;94200.00;5073523;28;20226;-68
2022/09/17 00:43:42;;;;;;;4.63;4.25;;;;;;;18.36;93.61;94200.22;5074097;28;20264;-68
2022/09/17 00:46:20;;;;;;;5.70;4.57;;;;;;;18.22;94.59;94199.66;5074012;28;20275;-68
2022/09/17 00:48:48;;;;;;;8.07;4.88;;;;;;;18.28;94.51;94197.44;5074064;28;20199;-66
2022/09/17 00:51:18;;;;;;;11.73;5.13;;;;;;;18.23;94.14;94207.25;5073262;28;20261;-68
2022/09/17 00:53:45;;;;;;;5.10;4.78;;;;;;;18.28;94.07;94223.16;5073636;28;20202;-66
2022/09/17 00:56:19;;;;;;;7.18;4.93;;;;;;;18.31;94.00;94224.66;5073184;28;20256;-67
2022/09/17 00:58:47;;;;;;;6.85;5.15;;;;;;;18.41;93.26;94227.34;5073485;28;20638;-66
2022/09/17 01:01:14;;;;;;;6.63;5.40;;;;;;;18.23;94.18;94219.28;5073432;28;20205;-66
2022/09/17 01:03:41;;;;;;;5.07;4.35;;;;;;;18.22;94.40;94220.22;5073160;28;20666;-66
2022/09/17 01:06:16;;;;;;;4.82;4.28;;;;;;;18.06;95.37;94210.31;5073270;28;20222;-67
2022/09/17 01:08:57;;;;;;;7.20;4.40;;;;;;;18.26;94.37;94206.19;5073066;28;20588;-68
2022/09/17 01:11:39;;;;;;;7.00;4.75;;;;;;;18.11;94.80;94208.19;5072187;28;20202;-67
2022/09/17 01:14:19;;;;;;;4.97;4.35;;;;;;;18.23;94.28;94191.81;5073335;28;20629;-67
2022/09/17 01:16:55;;;;;;;10.23;4.97;;;;;;;18.10;94.98;94198.00;5073092;28;20206;-67
2022/09/17 01:19:58;;;;;;;11.25;5.10;;;;;;;17.76;96.97;94197.19;5073331;28;20226;-66
2022/09/17 01:22:33;;;;;;;9.48;4.32;;;;;;;17.99;96.37;94203.97;5073745;28;20635;-67
2022/09/17 01:25:23;;;;;;;4.40;4.00;;;;;;;18.21;95.15;94208.31;5073007;28;20289;-68
2022/09/17 01:28:28;;;;;;;8.25;4.60;;;;;;;18.10;95.48;94195.44;5073010;28;20203;-70
2022/09/17 01:31:03;;;;;;;8.18;5.25;;;;;;;18.17;95.25;94201.75;5072348;28;20222;-69
2022/09/17 01:33:39;;;;;;;5.65;4.82;;;;;;;18.17;94.87;94182.00;5072649;28;20746;-69
2022/09/17 01:36:33;;;;;;;9.05;4.35;;;;;;;18.32;93.91;94175.66;5072761;28;20198;-69
2022/09/17 01:39:06;;;;;;;5.18;4.70;;;;;;;18.39;93.14;94159.75;5072672;28;20668;-69
2022/09/17 01:41:41;;;;;;;7.70;4.10;;;;;;;18.24;94.12;94157.44;5072821;28;20289;-67
2022/09/17 01:44:13;;;;;;;6.72;6.07;;;;;;;17.89;96.12;94161.91;5072850;28;20221;-67
2022/09/17 01:46:46;;;;;;;7.43;4.78;;;;;;;17.93;96.45;94158.16;5072568;28;20202;-66
2022/09/17 01:49:16;;;;;;;7.65;5.43;;;;;;;18.07;96.19;94193.91;5072735;28;20191;-67
2022/09/17 01:51:48;;;;;;;7.45;4.65;;;;;;;18.16;94.58;94213.78;5072721;28;20209;-67
2022/09/17 01:54:20;;;;;;;9.70;4.82;;;;;;;18.10;94.59;94196.25;5072415;28;20202;-67
2022/09/17 01:56:51;;;;;;;5.15;4.50;;;;;;;17.93;95.94;94191.59;5072764;28;20204;-68
2022/09/17 01:59:22;;;;;;;5.53;4.45;;;;;;;18.04;94.79;94196.75;5072314;28;20255;-67
2022/09/17 02:01:54;;;;;;;7.90;4.88;;;;;;;17.76;96.10;94192.88;5073141;28;20195;-67
2022/09/17 02:04:26;;;;;;;4.30;3.80;;;;;;;17.90;95.76;94166.13;5072213;28;20233;-68
2022/09/17 02:06:59;;;;;;;6.68;5.35;;;;;;;17.74;96.44;94130.50;5072709;28;20285;-67
2022/09/17 02:09:30;;;;;;;10.00;4.55;;;;;;;17.52;97.10;94118.44;5072498;28;20260;-67
2022/09/17 02:12:02;;;;;;;10.38;6.47;;;;;;;17.19;100.00;94105.53;5072610;28;20206;-67
2022/09/17 02:14:36;;;;;;;5.68;5.03;;;;;;;17.22;100.00;94089.91;5072043;28;20683;-66
2022/09/17 02:17:12;;;;;;;6.55;4.93;;;;;;;17.21;100.00;94063.41;5072238;28;20202;-67
2022/09/17 02:19:40;;;;;;;7.40;3.95;;;;;;;17.29;100.00;94073.13;5072062;28;20226;-67
2022/09/17 02:22:15;;;;;;;6.03;4.55;;;;;;;17.19;100.00;94070.41;5070660;28;20765;-67
2022/09/17 02:24:47;;;;;;;8.50;4.47;;;;;;;17.26;100.00;94079.31;5071546;28;20201;-67
2022/09/17 02:27:22;;;;;;;6.20;5.22;;;;;;;17.58;99.53;94076.03;5072058;28;20273;-66
2022/09/17 02:29:49;;;;;;;23.67;10.13;;;;;;;17.66;98.71;94094.28;5071946;28;20263;-67
2022/09/17 02:32:17;;;;;;;5.85;4.60;;;;;;;17.66;98.71;94094.28;5071592;28;20576;-68
2022/09/17 02:34:45;;;;;;;7.43;4.38;;;;;;;17.87;97.62;94112.38;5071893;28;20202;-67
2022/09/17 02:37:11;;;;;;;5.95;4.07;;;;;;;17.75;97.81;94115.91;5071820;28;20198;-67
2022/09/17 02:39:38;;;;;;;4.97;4.25;;;;;;;17.66;97.21;94131.06;5071742;28;20310;-67
2022/09/17 02:42:16;;;;;;;5.90;5.30;;;;;;;17.58;97.51;94060.63;5071757;28;20252;-67
2022/09/17 02:44:54;;;;;;;5.90;4.25;;;;;;;17.39;98.59;94076.63;5071873;28;20263;-67
2022/09/17 02:47:44;;;;;;;5.90;5.20;;;;;;;17.41;98.44;94058.53;5071598;28;20291;-67
2022/09/17 02:50:23;;;;;;;7.60;4.63;;;;;;;17.21;99.86;94052.34;5071728;28;20190;-67
2022/09/17 02:53:05;;;;;;;7.18;4.95;;;;;;;17.28;99.89;94068.91;5071734;28;20202;-68
2022/09/17 02:55:40;;;;;;;4.97;4.32;;;;;;;17.31;98.93;94058.41;5071307;28;20287;-67
2022/09/17 02:58:18;;;;;;;6.72;4.38;;;;;;;17.53;97.86;94027.59;5071570;28;20208;-67
2022/09/17 03:00:47;;;;;;;9.20;4.70;;;;;;;17.41;97.60;94023.38;5071405;28;20305;-67
2022/09/17 03:03:21;;;;;;;7.55;4.53;;;;;;;17.23;99.31;94033.31;5070966;28;20269;-67
2022/09/17 03:05:49;;;;;;;5.40;3.97;;;;;;;17.38;99.36;94063.88;5071445;28;20304;-65
2022/09/17 03:08:17;;;;;;;8.73;3.88;;;;;;;17.19;100.00;94070.41;5071575;28;20183;-67
2022/09/17 03:10:44;;;;;;;7.35;4.18;;;;;;;17.24;100.00;94057.25;5071654;28;20277;-68
2022/09/17 03:13:10;;;;;;;5.18;4.22;;;;;;;17.41;100.00;94050.81;5071686;28;20186;-67
2022/09/17 03:15:37;;;;;;;9.60;4.43;;;;;;;17.43;99.97;94069.50;5071336;28;20198;-67
2022/09/17 03:18:04;;;;;;;11.77;7.65;;;;;;;17.53;98.42;94070.44;5071244;28;20555;-66
2022/09/17 03:20:32;;;;;;;13.85;7.30;;;;;;;17.56;98.80;94042.78;5071262;28;20226;-67
2022/09/17 03:22:59;;;;;;;6.15;5.68;;;;;;;17.47;100.00;94030.63;5071052;28;20209;-66
2022/09/17 03:25:26;;;;;;;14.18;6.60;;;;;;;17.58;98.49;94027.22;5071243;28;20342;-68
2022/09/17 03:27:52;;;;;;;12.88;11.57;;;;;;;17.05;100.00;94015.94;5071487;28;20198;-67
2022/09/17 03:30:19;;;;;;;11.75;10.70;;;;;;;17.11;100.00;94012.88;5071201;28;20248;-67
2022/09/17 03:32:46;;;;;;;17.98;10.38;;;;;;;17.19;100.00;94023.38;5071672;28;20600;-64
2022/09/17 03:35:13;;;;;;;9.07;8.07;;;;;;;16.98;100.00;94016.38;5074784;28;20292;-67
2022/09/17 03:37:41;;;;;;;8.73;7.55;;;;;;;17.13;100.00;94029.78;5075019;28;20198;-67
2022/09/17 03:40:09;;;;;;;8.52;7.65;;;;;;;17.07;100.00;94014.06;5074904;28;20221;-68
2022/09/17 03:42:36;;;;;;;7.40;5.30;;;;;;;17.14;100.00;94030.63;5075237;28;20233;-66
2022/09/17 03:45:02;;;;;;;9.52;5.07;;;;;;;17.17;100.00;94030.38;5075143;28;20194;-67
2022/09/17 03:47:30;;;;;;;10.23;5.65;;;;;;;17.13;100.00;94016.16;5075023;28;20785;-65
2022/09/17 03:49:56;;;;;;;7.80;4.78;;;;;;;17.16;100.00;94023.63;5074810;28;20198;-68
2022/09/17 03:52:23;;;;;;;11.40;5.18;;;;;;;17.27;100.00;94021.06;5074806;28;20248;-67
2022/09/17 03:54:51;;;;;;;9.45;5.05;;;;;;;17.45;100.00;94018.84;5075232;28;20661;-67
2022/09/17 03:57:18;;;;;;;5.03;4.53;;;;;;;17.34;100.00;94012.75;5074795;28;20629;-67
2022/09/17 03:59:44;;;;;;;5.47;5.00;;;;;;;17.42;100.00;94007.03;5074874;28;20271;-68
2022/09/17 04:02:11;;;;;;;8.77;4.88;;;;;;;17.31;100.00;94027.63;5074205;28;20198;-67
2022/09/17 04:04:38;;;;;;;6.85;4.00;;;;;;;17.40;100.00;94037.16;5074101;28;20303;-68
2022/09/17 04:07:05;;;;;;;7.20;4.32;;;;;;;17.46;100.00;94041.84;5074563;28;20229;-68
2022/09/17 04:09:32;;;;;;;5.15;4.75;;;;;;;17.39;100.00;94039.84;5075100;28;20587;-67
2022/09/17 04:12:00;;;;;;;10.18;5.40;;;;;;;17.41;100.00;94053.38;5074972;28;20198;-67
2022/09/17 04:14:26;;;;;;;11.45;5.28;;;;;;;17.57;100.00;94062.38;5074722;28;20267;-68
2022/09/17 04:16:53;;;;;;;6.28;4.97;;;;;;;17.73;100.00;94079.22;5074218;28;20612;-66
2022/09/17 04:19:20;;;;;;;8.63;4.38;;;;;;;17.68;100.00;94088.09;5074020;28;20672;-68
2022/09/17 04:21:46;;;;;;;7.47;5.78;;;;;;;17.89;99.64;94105.38;5074140;28;20226;-67
2022/09/17 04:24:13;;;;;;;7.65;4.53;;;;;;;17.91;98.87;94108.63;5074503;28;20241;-67
2022/09/17 04:26:40;;;;;;;5.07;3.90;;;;;;;17.78;100.00;94113.09;5073932;28;20202;-69
2022/09/17 04:29:08;;;;;;;8.63;5.18;;;;;;;17.95;99.17;94117.75;5074044;28;20679;-68
2022/09/17 04:31:35;;;;;;;5.60;4.93;;;;;;;17.97;98.90;94126.16;5074024;28;20194;-69
2022/09/17 04:34:02;;;;;;;8.88;4.95;;;;;;;18.07;98.56;94139.91;5073745;28;20548;-68
2022/09/17 04:36:29;;;;;;;8.93;4.40;;;;;;;17.68;100.00;94139.47;5073864;28;20556;-68
2022/09/17 04:38:56;;;;;;;4.80;4.40;;;;;;;17.78;100.00;94151.66;5074266;28;20194;-67
2022/09/17 04:41:22;;;;;;;7.70;5.35;;;;;;;17.79;100.00;94163.56;5073588;28;20226;-68
2022/09/17 04:43:49;;;;;;;11.10;5.43;;;;;;;17.97;100.00;94159.59;5074156;28;20206;-66
2022/09/17 04:46:17;;;;;;;6.32;4.75;;;;;;;17.91;100.00;94165.19;5072677;28;20296;-67
2022/09/17 04:48:44;;;;;;;11.63;5.57;;;;;;;17.88;100.00;94167.97;5073888;28;20202;-68
2022/09/17 04:51:11;;;;;;;10.10;5.07;;;;;;;17.87;100.00;94179.19;5073562;28;20195;-67
2022/09/17 04:53:38;;;;;;;7.38;4.55;;;;;;;17.82;100.00;94196.72;5074145;28;20201;-67
2022/09/17 04:56:05;;;;;;;11.13;4.43;;;;;;;17.79;100.00;94202.09;5074208;28;20205;-67
2022/09/17 04:58:31;;;;;;;8.32;4.28;;;;;;;17.88;100.00;94216.81;5073852;28;20201;-67
2022/09/17 05:00:58;;;;;;;8.75;4.00;;;;;;;17.97;100.00;94223.84;5073625;28;20229;-67
2022/09/17 05:03:27;;;;;;;12.48;4.40;;;;;;;18.02;100.00;94211.47;5072692;28;20202;-68
2022/09/17 05:05:53;;;;;;;10.43;3.60;;;;;;;18.10;100.00;94200.56;5073490;28;20230;-67
2022/09/17 05:08:22;;;;;;;12.63;3.72;;;;;;;17.97;100.00;94186.09;5073267;28;20679;-66
2022/09/17 05:10:50;;;;;;;10.23;4.35;;;;;;;18.05;100.00;94177.81;5073471;28;20199;-68
2022/09/17 05:13:16;;;;;;;7.95;3.70;;;;;;;18.07;100.00;94175.91;5073134;28;20574;-69
2022/09/17 05:15:43;;;;;;;7.90;3.60;;;;;;;18.12;100.00;94167.84;5073492;28;20202;-68
2022/09/17 05:18:10;;;;;;;8.63;3.55;;;;;;;18.18;100.00;94167.38;5073369;28;20263;-68
2022/09/17 05:20:38;;;;;;;5.72;3.33;;;;;;;18.10;100.00;94160.25;5073263;28;20292;-69
2022/09/17 05:23:05;;;;;;;6.72;3.55;;;;;;;18.09;100.00;94153.47;5072927;28;20195;-67
2022/09/17 05:25:32;;;;;;;6.13;3.50;;;;;;;18.14;100.00;94146.22;5073217;28;20203;-67
2022/09/17 05:28:00;;;;;;;6.95;4.03;;;;;;;18.19;100.00;94128.69;5072946;28;20626;-66
2022/09/17 05:30:26;;;;;;;5.28;2.78;;;;;;;18.31;100.00;94126.94;5073171;28;20230;-68
2022/09/17 05:32:59;;;;;;;6.10;3.30;;;;;;;18.35;100.00;94143.72;5072811;28;20202;-68
2022/09/17 05:35:26;;;;;;;9.98;3.10;;;;;;;18.30;100.00;94151.84;5073223;28;20293;-69
2022/09/17 05:37:59;;;;;;;7.22;3.22;;;;;;;18.34;100.00;94158.34;5073071;28;20256;-68
2022/09/17 05:40:26;;;;;;;10.73;3.90;;;;;;;18.37;100.00;94162.44;5072819;28;20198;-67
2022/09/17 05:42:57;;;;;;;5.85;3.35;;;;;;;18.40;100.00;94157.06;5072918;28;20285;-67
2022/09/17 05:45:24;;;;;;;5.82;3.28;;;;;;;18.34;100.00;94158.34;5072627;28;20194;-68
2022/09/17 05:47:55;;;;;;;7.57;2.78;;;;;;;18.45;100.00;94161.84;5072788;28;20198;-67
2022/09/17 05:50:22;;;;;;;7.30;2.70;;;;;;;18.41;100.00;94160.44;5072241;28;20298;-69
2022/09/17 05:52:48;;;;;;;4.47;2.40;;;;;;;18.38;100.00;94163.25;5072622;28;20281;-68
2022/09/17 05:55:17;;;;;;;8.98;2.67;;;;;;;18.30;100.00;94154.41;5072578;28;20248;-67
2022/09/17 05:57:43;;;;;;;10.07;3.13;;;;;;;18.40;100.00;94151.91;5072667;28;20259;-67
2022/09/17 06:00:11;;;;;;;8.48;2.47;;;;;;;18.38;100.00;94150.41;5072432;28;20198;-66
2022/09/17 06:02:38;;;;;;;6.28;2.63;;;;;;;18.48;100.00;94153.91;5072422;28;20222;-67
2022/09/17 06:05:06;;;;;;;4.78;3.00;;;;;;;18.61;100.00;94152.00;5071953;28;20284;-68
2022/09/17 06:07:35;;;;;;;11.98;3.50;;;;;;;18.66;100.00;94162.75;5071414;28;20237;-68
2022/09/17 06:10:02;;;;;;;7.88;5.65;;;;;;;18.60;100.00;94170.97;5072082;28;20668;-68
2022/09/17 06:12:30;;;;;;;7.97;4.32;;;;;;;18.64;100.00;94178.31;5071840;28;20202;-69
2022/09/17 06:14:57;;;;;;;5.25;3.55;;;;;;;18.79;100.00;94199.47;5072221;28;20203;-68
2022/09/17 06:17:23;;;;;;;10.05;3.88;;;;;;;18.54;100.00;94203.13;5072123;28;20210;-68
2022/09/17 06:19:50;;;;;;;8.82;3.65;;;;;;;18.57;100.00;94209.75;5071732;28;20671;-68
2022/09/17 06:22:19;;;;;;;9.02;3.85;;;;;;;18.46;100.00;94212.38;5071691;28;20252;-67
2022/09/17 06:24:46;;;;;;;8.70;4.28;;;;;;;18.30;100.00;94218.72;5071647;28;20587;-68
2022/09/17 06:27:12;;;;;;;12.18;5.15;;;;;;;18.41;100.00;94232.47;5072067;28;20206;-68
2022/09/17 06:29:40;;;;;;;6.85;4.30;;;;;;;18.50;100.00;94249.78;5071954;28;20673;-68
2022/09/17 06:32:09;;;;;;;7.03;4.55;;;;;;;18.35;100.00;94247.44;5071345;28;20194;-67
2022/09/17 06:34:36;;;;;;;16.50;7.28;;;;;;;18.40;100.00;94259.13;5071609;28;20202;-68
2022/09/17 06:37:03;;;;;;;7.35;4.15;;;;;;;18.31;100.00;94246.03;5071548;28;20256;-67
2022/09/17 06:39:30;;;;;;;7.95;5.82;;;;;;;18.38;100.00;94250.72;5071530;28;20198;-69
2022/09/17 06:41:57;;;;;;;9.70;3.88;;;;;;;18.55;100.00;94235.63;5071455;28;20221;-67
2022/09/17 06:44:23;;;;;;;6.30;4.55;;;;;;;18.42;100.00;94234.13;5071614;28;20198;-70
2022/09/17 06:46:52;;;;;;;4.90;3.63;;;;;;;18.35;100.00;94236.34;5071634;28;20201;-67
2022/09/17 06:49:18;;;;;;;8.40;3.60;;;;;;;18.24;100.00;94214.03;5071389;28;20198;-68
2022/09/17 06:51:45;;;;;;;6.45;2.80;;;;;;;18.18;100.00;94204.22;5071629;28;20289;-68
2022/09/17 06:54:12;;;;;;;8.20;3.78;;;;;;;18.17;100.00;94204.31;5071676;28;20202;-67
2022/09/17 06:56:39;;;;;;;7.38;5.05;;;;;;;18.35;100.00;94206.28;5071858;28;20202;-69
2022/09/17 06:59:05;;;;;;;5.00;3.70;;;;;;;18.38;100.00;94194.13;5071286;28;20201;-71
2022/09/17 07:01:32;;;;;;;8.98;3.78;;;;;;;18.29;100.00;94193.94;5070927;28;20799;-69
2022/09/17 07:04:00;;;;;;;4.60;4.20;;;;;;;18.51;100.00;94189.69;5071175;28;20696;-68
2022/09/17 07:06:27;;;;;;;7.88;4.80;;;;;;;18.72;100.00;94167.44;5072420;28;20221;-69
2022/09/17 07:08:54;;;;;;;11.18;4.55;;;;;;;18.59;100.00;94156.41;5070497;28;20202;-69
2022/09/17 07:11:20;;;;;;;8.63;5.78;;;;;;;18.74;100.00;94150.09;5071283;28;20198;-68
2022/09/17 07:13:47;;;;;;;7.60;5.10;;;;;;;18.73;100.00;94151.03;5071187;28;20248;-68
2022/09/17 07:16:14;;;;;;;10.35;5.35;;;;;;;18.85;99.56;94142.31;5071746;28;20202;-67
2022/09/17 07:18:41;;;;;;;5.70;3.83;;;;;;;19.36;97.63;94137.25;5071767;28;20256;-68
2022/09/17 07:21:10;;;;;;;11.10;4.93;;;;;;;19.63;94.10;94123.06;5070987;28;20769;-71
2022/09/17 07:23:37;;;;;;;12.15;5.07;;;;;;;19.96;92.54;94103.94;5072824;28;20259;-69
2022/09/17 07:26:07;;;;;;;5.13;4.20;;;;;;;21.05;88.13;94112.34;5071559;28;20593;-68
2022/09/17 07:28:34;;;;;;;4.90;4.00;;;;;;;22.45;81.86;94121.06;5071125;28;20209;-69
2022/09/17 07:31:04;;;;;;;10.68;4.40;;;;;;;24.02;74.88;94150.53;5071392;28;20198;-69
2022/09/17 07:33:30;;;;;;;6.07;3.33;;;;;;;23.93;73.91;94138.50;5071239;28;20775;-69
2022/09/17 07:35:59;;;;;;;6.35;3.42;;;;;;;22.66;76.78;94127.59;5071719;28;20213;-69
2022/09/17 07:38:28;;;;;;;10.25;5.68;;;;;;;22.12;80.34;94125.88;5071314;28;20672;-69
2022/09/17 07:40:57;;;;;;;8.93;3.35;;;;;;;22.56;79.96;94113.06;5071273;28;20275;-68
2022/09/17 07:43:24;;;;;;;8.52;3.15;;;;;;;24.99;70.16;94114.50;5070519;28;20285;-67
2022/09/17 07:45:52;;;;;;;6.82;3.00;;;;;;;26.64;64.36;94102.59;5071141;28;20372;-68
2022/09/17 07:48:18;;;;;;;4.25;3.03;;;;;;;27.12;62.16;94103.28;5070623;28;20194;-67
2022/09/17 07:50:45;;;;;;;6.78;2.65;;;;;;;25.98;65.23;94096.06;5070582;28;20198;-67
2022/09/17 07:53:12;;;;;;;10.32;2.88;;;;;;;25.40;66.74;94112.72;5070757;28;20252;-67
2022/09/17 07:55:40;;;;;;;5.18;2.40;;;;;;;24.30;70.96;94110.44;5070979;28;20271;-67
2022/09/17 07:58:07;;;;;;;5.47;3.00;;;;;;;23.91;72.71;94099.72;5071135;28;20209;-68
2022/09/17 08:00:34;;;;;;;8.85;3.45;;;;;;;24.13;71.00;94111.34;5071239;28;20285;-67
2022/09/17 08:03:01;;;;;;;8.63;4.03;;;;;;;25.45;66.74;94104.44;5070580;28;20652;-68
2022/09/17 08:05:27;;;;;;;3.70;2.85;;;;;;;26.61;62.41;94089.91;5070318;28;20657;-67
2022/09/17 08:07:55;;;;;;;6.60;3.88;;;;;;;26.34;62.66;94090.38;5070825;28;20198;-67
2022/09/17 08:10:23;;;;;;;10.65;3.55;;;;;;;25.86;63.17;94091.34;5070739;28;20203;-68
2022/09/17 08:12:55;;;;;;;5.15;3.35;;;;;;;25.81;63.58;94091.03;5070362;28;20217;-67
2022/09/17 08:15:22;;;;;;;5.32;3.03;;;;;;;25.13;65.86;94084.47;5070925;28;20260;-67
2022/09/17 08:17:49;;;;;;;7.13;3.05;;;;;;;24.54;68.69;94083.72;5070780;28;20198;-66
2022/09/17 08:20:17;;;;;;;11.15;3.13;;;;;;;24.25;69.33;94083.34;5072378;28;20206;-68
2022/09/17 08:22:44;;;;;;;17.45;12.32;;;;;;;24.19;71.04;94089.94;5074063;28;20222;-67
2022/09/17 08:25:11;;;;;;;7.82;2.53;;;;;;;24.50;69.67;94081.63;5074257;28;20256;-68
2022/09/17 08:27:38;;;;;;;3.70;3.15;;;;;;;24.47;68.37;94094.94;5074326;28;20289;-68
2022/09/17 08:30:09;;;;;;;3.55;2.95;;;;;;;24.48;70.18;94078.38;5074484;28;20332;-68
2022/09/17 08:32:35;;;;;;;4.63;3.00;;;;;;;25.25;66.54;94077.13;5073695;28;20252;-67
2022/09/17 08:35:02;;;;;;;3.75;2.65;;;;;;;25.35;64.78;94082.97;5074073;28;20232;-68
2022/09/17 08:37:30;;;;;;;3.00;2.40;;;;;;;25.21;64.07;94081.06;5074184;28;20202;-67
2022/09/17 08:39:57;;;;;;;4.18;2.50;;;;;;;25.14;64.94;94080.88;5073794;28;20234;-68
2022/09/17 08:42:31;;;;;;;8.60;2.33;;;;;;;25.09;65.85;94083.97;5073535;28;20222;-68
2022/09/17 08:44:59;;;;;;;10.70;3.00;;;;;;;25.05;65.59;94072.28;5073960;28;20248;-67
2022/09/17 08:47:30;;;;;;;8.50;5.50;;;;;;;24.68;67.31;94070.13;5073863;28;20202;-68
2022/09/17 08:50:02;;;;;;;7.35;4.50;;;;;;;24.53;68.75;94070.91;5073559;28;20201;-67
2022/09/17 08:52:52;;;;;;;5.65;2.67;;;;;;;24.25;66.56;94078.94;5073605;28;20236;-67
2022/09/17 08:55:39;;;;;;;5.35;2.60;;;;;;;23.82;67.68;94084.28;5073269;28;20260;-67
2022/09/17 08:58:29;;;;;;;10.68;4.05;;;;;;;23.49;69.32;94086.69;5073584;28;20580;-68
2022/09/17 09:01:04;;;;;;;7.07;6.13;;;;;;;23.44;70.32;94081.13;5063617;28;20202;-68
2022/09/17 09:03:50;;;;;;;8.15;6.70;;;;;;;23.04;72.83;94077.28;5072561;28;20683;-68
2022/09/17 09:06:20;;;;;;;4.50;2.92;;;;;;;22.92;72.24;94078.50;5073471;28;20229;-68
2022/09/17 09:08:51;;;;;;;5.22;3.20;;;;;;;22.68;73.64;94075.66;5073136;28;20699;-68
2022/09/17 09:11:26;;;;;;;10.73;2.97;;;;;;;22.46;74.64;94076.09;5073387;28;20209;-69
2022/09/17 09:14:00;;;;;;;5.28;3.80;;;;;;;22.30;74.74;94082.72;5073188;28;20198;-69
2022/09/17 09:16:31;;;;;;;3.67;3.38;;;;;;;22.11;75.55;94097.56;5073321;28;20201;-68
2022/09/17 09:19:11;;;;;;;26.55;17.48;;;;;;;21.91;77.04;94096.81;5073530;28;20201;-67
2022/09/17 09:21:44;;;;;;;7.20;4.60;;;;;;;21.70;79.19;94103.00;5072856;28;20278;-68
2022/09/17 09:24:19;;;;;;;5.45;3.10;;;;;;;21.34;82.73;94108.94;5073024;28;20691;-68
2022/09/17 09:26:53;;;;;;;3.13;2.92;;;;;;;21.37;84.02;94119.00;5073012;28;20209;-68
2022/09/17 09:29:27;;;;;;;5.78;3.83;;;;;;;21.39;84.25;94127.44;5073126;28;20263;-68
2022/09/17 09:32:07;;;;;;;10.90;6.85;;;;;;;21.45;84.11;94141.59;5072549;28;20579;-67
2022/09/17 09:34:37;;;;;;;4.30;3.95;;;;;;;21.25;86.94;94144.22;5073221;28;20202;-68
2022/09/17 09:37:14;;;;;;;3.97;3.60;;;;;;;21.19;86.55;94152.47;5073003;28;20268;-70
2022/09/17 09:39:43;;;;;;;5.60;4.15;;;;;;;21.22;86.12;94156.59;5072886;28;20202;-67
2022/09/17 09:42:18;;;;;;;4.85;3.40;;;;;;;20.94;87.95;94153.84;5072872;28;20214;-69
2022/09/17 09:44:45;;;;;;;7.40;4.75;;;;;;;20.94;87.80;94166.75;5072977;28;20194;-68
2022/09/17 09:47:33;;;;;;;11.00;7.00;;;;;;;20.78;88.80;94176.81;5072672;28;20627;-67
2022/09/17 09:50:15;;;;;;;52.33;31.60;;;;;;;20.64;90.58;94179.75;5069686;28;20202;-66
2022/09/17 09:52:57;;;;;;;41.17;25.67;;;;;;;20.61;90.87;94185.19;5072228;28;20753;-69
2022/09/17 09:55:38;;;;;;;10.18;6.90;;;;;;;20.59;91.57;94184.50;5072365;28;20198;-68
2022/09/17 09:58:16;;;;;;;17.05;11.73;;;;;;;20.69;91.38;94206.00;5072824;28;20260;-69
2022/09/17 10:00:43;;;;;;;9.02;6.00;;;;;;;20.07;97.23;94152.81;5072414;28;20202;-66
2022/09/17 10:03:16;;;;;;;17.92;8.30;;;;;;;19.91;99.00;94137.84;5072370;28;20222;-69
2022/09/17 10:05:56;;;;;;;6.55;4.38;;;;;;;19.81;100.00;94131.00;5072144;28;20777;-67
2022/09/17 10:08:23;;;;;;;6.80;3.40;;;;;;;19.60;99.01;94098.38;5072668;28;20733;-67
2022/09/17 10:10:58;;;;;;;4.32;3.20;;;;;;;19.31;100.00;94081.91;5072556;28;20198;-67
2022/09/17 10:13:26;;;;;;;5.75;3.35;;;;;;;19.18;100.00;94061.53;5072718;28;20292;-69
2022/09/17 10:15:53;;;;;;;4.03;3.05;;;;;;;19.18;100.00;94051.22;5072170;28;20198;-68
2022/09/17 10:18:23;;;;;;;6.57;3.33;;;;;;;19.24;99.64;94037.03;5071861;28;20734;-69
2022/09/17 10:20:53;;;;;;;5.10;4.15;;;;;;;18.89;100.00;94029.63;5072162;28;20277;-67
2022/09/17 10:23:21;;;;;;;4.50;3.65;;;;;;;18.81;100.00;94007.09;5071909;28;20725;-67
2022/09/17 10:25:49;;;;;;;8.52;3.22;;;;;;;18.78;100.00;94017.66;5072117;28;20194;-69
2022/09/17 10:28:31;;;;;;;7.15;3.03;;;;;;;18.79;100.00;94031.34;5072181;28;20194;-68
2022/09/17 10:31:00;;;;;;;3.70;3.40;;;;;;;18.89;100.00;94043.31;5072210;28;20228;-67
2022/09/17 10:33:30;;;;;;;5.50;3.35;;;;;;;18.89;100.00;94034.78;5072041;28;20198;-66
2022/09/17 10:36:05;;;;;;;4.07;3.60;;;;;;;19.11;99.99;94055.25;5071508;28;20202;-67
2022/09/17 10:38:37;;;;;;;6.70;2.83;;;;;;;19.15;98.73;94050.66;5071510;28;20563;-67
2022/09/17 10:41:16;;;;;;;9.07;4.10;;;;;;;19.14;100.00;94059.31;5072023;28;20636;-67
2022/09/17 10:43:43;;;;;;;7.20;6.38;;;;;;;19.27;99.73;94059.94;5070650;28;20232;-67
2022/09/17 10:46:14;;;;;;;6.97;5.68;;;;;;;19.49;99.82;94048.66;5071811;28;20198;-67
2022/09/17 10:48:44;;;;;;;4.38;3.53;;;;;;;19.23;98.82;94032.81;5071782;28;20198;-65
2022/09/17 10:51:23;;;;;;;3.72;2.78;;;;;;;19.00;99.93;94027.81;5071260;28;20198;-66
2022/09/17 10:54:08;;;;;;;3.35;2.70;;;;;;;19.26;99.39;94014.53;5071805;28;20194;-66
2022/09/17 10:56:37;;;;;;;6.07;2.80;;;;;;;19.32;99.71;94012.22;5071537;28;20198;-65
2022/09/17 10:59:38;;;;;;;6.20;2.70;;;;;;;19.22;99.38;94026.03;5071358;28;20198;-66
2022/09/17 11:02:21;;;;;;;8.82;3.25;;;;;;;19.37;99.38;94019.56;5070451;28;20225;-67
2022/09/17 11:04:55;;;;;;;6.13;5.10;;;;;;;19.38;98.55;94052.13;5071638;28;20801;-67
2022/09/17 11:07:34;;;;;;;6.72;5.10;;;;;;;19.18;100.00;94024.66;5071332;28;20309;-67
2022/09/17 11:10:12;;;;;;;11.40;8.90;;;;;;;19.39;99.44;94066.63;5070941;28;20206;-65
2022/09/17 11:12:53;;;;;;;8.73;5.63;;;;;;;19.59;100.00;94045.19;5071115;28;20281;-67
2022/09/17 11:15:31;;;;;;;5.53;3.88;;;;;;;19.67;97.25;94054.84;5070814;28;20247;-66
2022/09/17 11:18:33;;;;;;;4.45;4.05;;;;;;;19.81;99.93;94038.19;5071406;28;20247;-66
2022/09/17 11:21:27;;;;;;;6.60;4.05;;;;;;;20.14;95.90;94049.94;5057240;28;20198;-68
2022/09/17 11:24:14;;;;;;;4.10;3.70;;;;;;;20.46;95.05;94060.06;5070940;28;20792;-68
2022/09/17 11:26:47;;;;;;;4.45;3.25;;;;;;;20.78;93.74;94076.13;5070935;28;20194;-68
2022/09/17 11:29:35;;;;;;;3.70;3.35;;;;;;;21.02;93.07;94063.59;5070753;28;21251;-66
2022/09/17 11:32:11;;;;;;;16.55;13.90;;;;;;;20.84;96.97;94049.72;5070815;28;20202;-67
2022/09/17 11:34:43;;;;;;;17.85;15.20;;;;;;;20.81;94.85;94050.00;5070573;28;20629;-67
2022/09/17 11:37:18;;;;;;;7.45;3.63;;;;;;;20.79;95.25;94038.19;5070679;28;20695;-65
2022/09/17 11:39:50;;;;;;;4.80;4.15;;;;;;;20.62;95.14;94034.53;5071243;28;20255;-69
2022/09/17 11:42:20;;;;;;;6.10;2.97;;;;;;;20.45;95.92;94030.06;5070968;28;20198;-68
2022/09/17 11:44:52;;;;;;;4.35;3.25;;;;;;;20.35;95.33;94023.09;5071120;28;20255;-68
2022/09/17 11:47:23;;;;;;;5.05;2.17;;;;;;;20.27;95.37;94020.38;5070653;28;20198;-68